Time;durP1;ratioP1;P1;durP2;ratioP2;P2;SDS_P1;SDS_P2;PMS_P1;PMS_P2;Temp;Humidity;BMP_temperature;BMP_pressure;BME280_temperature;BME280_humidity;BME280_pressure;Samples;Min_cycle;Max_cycle;Signal;HPM_P1;HPM_P2
2022/09/20 00:00:32;;;;;;;7.43;3.40;;;;;;;;;;4998665;28;20046;-80
2022/09/20 00:02:59;;;;;;;11.07;3.63;;;;;;;;;;5013598;28;20445;-79
2022/09/20 00:05:25;;;;;;;12.60;3.90;;;;;;;;;;5015394;28;20056;-80
2022/09/20 00:07:51;;;;;;;13.95;4.40;;;;;;;;;;5014040;28;20053;-79
2022/09/20 00:10:18;;;;;;;16.67;4.43;;;;;;;;;;5014475;28;20041;-79
2022/09/20 00:12:44;;;;;;;11.25;4.07;;;;;;;;;;5015207;28;20042;-80
2022/09/20 00:15:11;;;;;;;13.68;4.15;;;;;;;;;;5014963;28;20045;-79
2022/09/20 00:17:37;;;;;;;13.48;4.18;;;;;;;;;;5014328;28;20080;-80
2022/09/20 00:20:04;;;;;;;13.88;3.90;;;;;;;;;;5014498;28;20084;-80
2022/09/20 00:22:31;;;;;;;15.15;4.03;;;;;;;;;;5014979;28;20050;-79
2022/09/20 00:24:57;;;;;;;13.48;4.50;;;;;;;;;;5014347;28;20052;-80
2022/09/20 00:27:23;;;;;;;13.45;4.50;;;;;;;;;;5015236;28;20050;-79
2022/09/20 00:29:50;;;;;;;12.55;4.10;;;;;;;;;;5014072;28;20140;-78
2022/09/20 00:32:16;;;;;;;11.70;4.95;;;;;;;;;;5015018;28;20056;-79
2022/09/20 00:37:28;;;;;;;8.27;3.85;;;;;;;;;;5015819;28;20530;-79
2022/09/20 00:39:54;;;;;;;13.10;4.20;;;;;;;;;;5014056;28;20430;-80
2022/09/20 00:42:25;;;;;;;10.50;3.97;;;;;;;;;;5014514;28;20050;-79
2022/09/20 00:45:02;;;;;;;13.48;4.47;;;;;;;;;;5014824;28;20069;-79
2022/09/20 00:47:47;;;;;;;17.77;4.30;;;;;;;;;;5015645;28;20049;-81
2022/09/20 00:50:14;;;;;;;12.05;4.30;;;;;;;;;;5007300;28;20046;-80
2022/09/20 00:52:42;;;;;;;16.02;4.50;;;;;;;;;;4995353;28;20739;-80
2022/09/20 00:55:09;;;;;;;8.95;4.30;;;;;;;;;;4978283;28;20058;-79
2022/09/20 00:57:37;;;;;;;16.52;4.10;;;;;;;;;;4994885;28;20050;-79
2022/09/20 01:00:07;;;;;;;11.98;3.70;;;;;;;;;;4993724;28;20450;-80
2022/09/20 01:02:35;;;;;;;15.90;4.15;;;;;;;;;;4997058;28;20145;-79
2022/09/20 01:05:03;;;;;;;10.82;3.92;;;;;;;;;;4994344;28;20046;-79
2022/09/20 01:07:29;;;;;;;15.23;4.03;;;;;;;;;;4971137;28;20051;-79
2022/09/20 01:09:55;;;;;;;10.70;4.00;;;;;;;;;;4984915;28;20082;-80
2022/09/20 01:12:24;;;;;;;11.30;3.72;;;;;;;;;;4977143;28;20606;-80
2022/09/20 01:14:51;;;;;;;16.35;3.95;;;;;;;;;;4976712;28;20059;-82
2022/09/20 01:17:19;;;;;;;11.60;3.90;;;;;;;;;;4976138;28;20069;-80
2022/09/20 01:20:04;;;;;;;12.02;3.65;;;;;;;;;;4975098;28;20055;-80
2022/09/20 01:22:33;;;;;;;13.73;4.30;;;;;;;;;;4976801;28;20050;-81
2022/09/20 01:25:03;;;;;;;11.95;4.03;;;;;;;;;;4976254;28;20042;-80
2022/09/20 01:27:46;;;;;;;9.80;3.40;;;;;;;;;;4986810;28;20069;-79
2022/09/20 01:30:18;;;;;;;11.70;3.47;;;;;;;;;;4993687;28;20046;-79
2022/09/20 01:32:56;;;;;;;14.82;3.70;;;;;;;;;;4987458;28;20050;-81
2022/09/20 01:35:24;;;;;;;10.52;4.25;;;;;;;;;;4977453;28;20050;-79
2022/09/20 01:38:04;;;;;;;8.30;3.60;;;;;;;;;;4959212;28;20541;-80
2022/09/20 01:40:38;;;;;;;14.35;3.30;;;;;;;;;;4975886;28;20065;-79
2022/09/20 01:43:15;;;;;;;13.25;3.47;;;;;;;;;;4975140;28;20494;-79
2022/09/20 01:45:45;;;;;;;10.40;3.53;;;;;;;;;;4974819;28;20057;-79
2022/09/20 01:48:19;;;;;;;18.50;3.67;;;;;;;;;;4973920;28;20054;-80
2022/09/20 01:51:00;;;;;;;12.18;3.03;;;;;;;;;;4986835;28;20058;-79
2022/09/20 01:53:45;;;;;;;10.52;3.08;;;;;;;;;;4994747;28;20054;-79
2022/09/20 01:56:31;;;;;;;9.77;2.67;;;;;;;;;;4994552;28;20508;-83
2022/09/20 01:59:00;;;;;;;9.13;3.10;;;;;;;;;;4992889;28;20057;-79
2022/09/20 02:01:53;;;;;;;14.02;2.80;;;;;;;;;;4994580;28;20058;-80
2022/09/20 02:04:22;;;;;;;12.38;3.03;;;;;;;;;;4993761;28;20136;-82
2022/09/20 02:06:53;;;;;;;11.77;3.42;;;;;;;;;;4994677;28;20112;-79
2022/09/20 02:09:26;;;;;;;12.15;2.85;;;;;;;;;;4993025;28;20449;-78
2022/09/20 02:11:53;;;;;;;11.57;2.63;;;;;;;;;;4994550;28;20065;-79
2022/09/20 02:14:22;;;;;;;13.05;3.08;;;;;;;;;;4993757;28;20055;-80
2022/09/20 02:17:21;;;;;;;17.05;3.15;;;;;;;;;;4994115;28;20046;-81
2022/09/20 02:19:59;;;;;;;11.00;2.97;;;;;;;;;;4970409;28;20133;-81
2022/09/20 02:22:35;;;;;;;12.23;2.70;;;;;;;;;;4994055;28;20061;-80
2022/09/20 02:25:11;;;;;;;8.07;3.20;;;;;;;;;;4993955;28;20052;-79
2022/09/20 02:27:37;;;;;;;10.20;3.28;;;;;;;;;;4993893;28;20047;-79
2022/09/20 02:30:23;;;;;;;12.13;3.17;;;;;;;;;;4993908;28;20061;-80
2022/09/20 02:33:00;;;;;;;10.00;3.10;;;;;;;;;;4993692;28;20046;-78
2022/09/20 02:35:34;;;;;;;12.63;3.00;;;;;;;;;;4995210;28;20057;-78
2022/09/20 02:38:01;;;;;;;12.70;2.97;;;;;;;;;;4994104;28;20077;-78
2022/09/20 02:40:33;;;;;;;13.88;2.72;;;;;;;;;;4992704;28;20478;-79
2022/09/20 02:42:59;;;;;;;13.00;3.10;;;;;;;;;;4993125;28;20054;-79
2022/09/20 02:45:42;;;;;;;18.67;3.20;;;;;;;;;;4994239;28;20051;-80
2022/09/20 02:48:09;;;;;;;14.52;3.40;;;;;;;;;;4993876;28;20093;-80
2022/09/20 02:50:54;;;;;;;12.60;2.83;;;;;;;;;;4988904;28;20055;-80
2022/09/20 02:53:40;;;;;;;12.90;3.55;;;;;;;;;;4961191;28;20143;-80
2022/09/20 02:56:18;;;;;;;9.50;3.00;;;;;;;;;;4976682;28;20485;-79
2022/09/20 02:59:02;;;;;;;15.85;3.30;;;;;;;;;;4976426;28;20510;-79
2022/09/20 03:01:31;;;;;;;11.60;2.88;;;;;;;;;;4979461;28;20085;-81
2022/09/20 03:04:10;;;;;;;10.60;2.97;;;;;;;;;;4958982;28;20074;-79
2022/09/20 03:06:40;;;;;;;16.42;3.20;;;;;;;;;;4976352;28;20051;-81
2022/09/20 03:09:32;;;;;;;8.70;2.65;;;;;;;;;;4975016;28;20205;-81
2022/09/20 03:12:11;;;;;;;12.00;2.88;;;;;;;;;;4961108;28;20062;-78
2022/09/20 03:14:56;;;;;;;16.13;3.22;;;;;;;;;;4957802;28;20058;-81
2022/09/20 03:17:23;;;;;;;14.68;2.70;;;;;;;;;;4975529;28;20047;-80
2022/09/20 03:20:08;;;;;;;15.50;3.20;;;;;;;;;;4974828;28;20066;-79
2022/09/20 03:22:43;;;;;;;12.15;3.38;;;;;;;;;;4977572;28;20054;-79
2022/09/20 03:25:10;;;;;;;17.38;3.17;;;;;;;;;;4976859;28;20046;-79
2022/09/20 03:27:49;;;;;;;12.65;2.75;;;;;;;;;;4976634;28;20541;-81
2022/09/20 03:30:30;;;;;;;13.65;3.28;;;;;;;;;;4977514;28;20054;-82
2022/09/20 03:32:57;;;;;;;16.80;3.30;;;;;;;;;;4985883;28;20047;-79
2022/09/20 03:35:41;;;;;;;12.15;3.22;;;;;;;;;;4985711;28;20138;-81
2022/09/20 03:38:22;;;;;;;17.25;3.70;;;;;;;;;;4977085;28;20048;-80
2022/09/20 03:41:01;;;;;;;10.73;3.97;;;;;;;;;;4977611;28;20145;-79
2022/09/20 03:43:32;;;;;;;19.58;4.30;;;;;;;;;;4995293;28;20061;-80
2022/09/20 03:46:08;;;;;;;15.45;3.88;;;;;;;;;;4995207;28;20101;-80
2022/09/20 03:48:35;;;;;;;18.30;3.70;;;;;;;;;;4994337;28;20569;-80
2022/09/20 03:51:22;;;;;;;12.27;3.53;;;;;;;;;;4995277;28;20526;-79
2022/09/20 03:53:49;;;;;;;13.68;3.47;;;;;;;;;;4996148;28;20154;-79
2022/09/20 03:56:19;;;;;;;13.63;3.28;;;;;;;;;;4994572;28;20047;-80
2022/09/20 03:59:12;;;;;;;13.18;2.72;;;;;;;;;;4994085;28;20056;-79
2022/09/20 04:01:57;;;;;;;12.73;2.45;;;;;;;;;;4994942;28;20050;-77
2022/09/20 04:04:26;;;;;;;21.30;3.15;;;;;;;;;;4995229;28;20065;-81
2022/09/20 04:07:03;;;;;;;13.85;2.80;;;;;;;;;;4977885;28;20056;-81
2022/09/20 04:09:48;;;;;;;15.13;2.72;;;;;;;;;;4977080;28;20257;-80
2022/09/20 04:12:21;;;;;;;8.88;2.28;;;;;;;;;;4995623;28;20070;-80
2022/09/20 04:15:04;;;;;;;15.20;2.38;;;;;;;;;;4993169;28;20521;-82
2022/09/20 04:17:38;;;;;;;14.40;2.50;;;;;;;;;;4975537;28;20289;-82
2022/09/20 04:20:12;;;;;;;16.00;2.72;;;;;;;;;;4992974;28;20052;-83
2022/09/20 04:22:39;;;;;;;12.60;2.60;;;;;;;;;;4994125;28;20098;-81
2022/09/20 04:25:06;;;;;;;10.48;2.55;;;;;;;;;;4994479;28;20051;-81
2022/09/20 04:27:38;;;;;;;15.80;3.50;;;;;;;;;;4975645;28;20046;-81
2022/09/20 04:30:14;;;;;;;20.30;2.97;;;;;;;;;;4992852;28;20058;-82
2022/09/20 04:32:45;;;;;;;12.07;3.25;;;;;;;;;;4992387;28;20072;-82
2022/09/20 04:37:57;;;;;;;14.25;3.08;;;;;;;;;;4996389;28;20054;-81
2022/09/20 04:40:32;;;;;;;17.35;2.65;;;;;;;;;;4993370;28;20470;-80
2022/09/20 04:42:59;;;;;;;10.20;2.55;;;;;;;;;;4994593;28;20046;-81
2022/09/20 04:45:27;;;;;;;8.77;2.40;;;;;;;;;;4994290;28;20050;-80
2022/09/20 04:48:12;;;;;;;11.10;2.58;;;;;;;;;;5002932;28;20058;-81
2022/09/20 04:51:00;;;;;;;22.17;3.13;;;;;;;;;;5003432;28;20052;-81
2022/09/20 04:53:33;;;;;;;17.73;3.03;;;;;;;;;;4998883;28;20101;-79
2022/09/20 04:56:18;;;;;;;17.67;3.78;;;;;;;;;;5015462;28;20050;-81
2022/09/20 04:58:55;;;;;;;18.53;3.60;;;;;;;;;;5007438;28;20050;-80
2022/09/20 05:01:54;;;;;;;18.98;3.72;;;;;;;;;;5007095;28;20289;-79
2022/09/20 05:04:21;;;;;;;18.45;3.63;;;;;;;;;;5005847;28;20059;-80
2022/09/20 05:07:06;;;;;;;20.08;3.88;;;;;;;;;;4985070;28;20056;-79
2022/09/20 05:09:50;;;;;;;20.02;3.78;;;;;;;;;;5002345;28;20437;-78
2022/09/20 05:12:20;;;;;;;18.92;4.20;;;;;;;;;;5002958;28;20597;-79
2022/09/20 05:15:01;;;;;;;20.85;4.28;;;;;;;;;;5003252;28;20308;-78
2022/09/20 05:17:48;;;;;;;17.92;4.22;;;;;;;;;;4987506;28;20050;-79
2022/09/20 05:20:14;;;;;;;23.25;4.80;;;;;;;;;;4993128;28;20050;-81
2022/09/20 05:22:59;;;;;;;19.48;5.20;;;;;;;;;;4992982;28;20049;-80
2022/09/20 05:25:41;;;;;;;20.88;4.80;;;;;;;;;;4992150;28;20061;-82
2022/09/20 05:28:20;;;;;;;22.42;4.78;;;;;;;;;;4992136;28;20050;-79
2022/09/20 05:30:48;;;;;;;23.80;4.70;;;;;;;;;;4992352;28;20062;-83
2022/09/20 05:33:21;;;;;;;21.23;4.45;;;;;;;;;;4974270;28;20223;-81
2022/09/20 05:36:12;;;;;;;19.85;4.03;;;;;;;;;;4992440;28;20061;-80
2022/09/20 05:38:44;;;;;;;22.55;5.03;;;;;;;;;;4991375;28;20521;-80
2022/09/20 05:41:34;;;;;;;18.52;4.25;;;;;;;;;;4992052;28;20065;-80
2022/09/20 05:44:03;;;;;;;14.88;4.28;;;;;;;;;;4992938;28;20050;-82
2022/09/20 05:46:36;;;;;;;20.25;5.13;;;;;;;;;;4991891;28;20584;-83
2022/09/20 05:49:11;;;;;;;16.88;4.38;;;;;;;;;;4991405;28;20054;-81
2022/09/20 05:51:51;;;;;;;21.77;5.15;;;;;;;;;;4975293;28;20051;-81
2022/09/20 05:54:21;;;;;;;19.95;5.00;;;;;;;;;;4993247;28;20054;-82
2022/09/20 05:57:06;;;;;;;14.20;4.65;;;;;;;;;;4977929;28;20054;-79
2022/09/20 05:59:51;;;;;;;20.25;5.30;;;;;;;;;;5001811;28;20077;-80
2022/09/20 06:02:26;;;;;;;18.40;4.45;;;;;;;;;;4993638;28;20050;-79
2022/09/20 06:04:55;;;;;;;;;;;;;;;;;;4992182;28;20073;-81
2022/09/20 06:07:24;;;;;;;19.52;4.72;;;;;;;;;;4991910;28;19925;-82
2022/09/20 06:10:06;;;;;;;17.70;4.45;;;;;;;;;;4973898;28;20054;-80
2022/09/20 06:12:37;;;;;;;19.73;4.80;;;;;;;;;;4993394;28;20055;-82
2022/09/20 06:15:18;;;;;;;19.10;5.05;;;;;;;;;;4993100;28;20050;-82
2022/09/20 06:18:03;;;;;;;23.45;5.78;;;;;;;;;;4992431;28;20050;-82
2022/09/20 06:20:30;;;;;;;18.30;5.22;;;;;;;;;;4993091;28;20070;-81
2022/09/20 06:22:58;;;;;;;15.43;5.00;;;;;;;;;;4994599;28;20046;-79
2022/09/20 06:25:31;;;;;;;17.05;5.32;;;;;;;;;;4977424;28;20347;-81
2022/09/20 06:27:59;;;;;;;19.00;5.07;;;;;;;;;;4991552;28;20050;-82
2022/09/20 06:30:28;;;;;;;26.02;6.20;;;;;;;;;;4990957;28;20413;-83
2022/09/20 06:33:15;;;;;;;22.95;5.65;;;;;;;;;;4973390;28;20061;-83
2022/09/20 06:35:54;;;;;;;26.20;5.80;;;;;;;;;;4975348;28;20054;-82
2022/09/20 06:41:28;;;;;;;19.95;4.88;;;;;;;;;;4990765;28;20065;-81
2022/09/20 06:43:58;;;;;;;18.92;5.72;;;;;;;;;;4991273;28;20050;-79
2022/09/20 06:46:29;;;;;;;19.83;5.65;;;;;;;;;;4989991;28;20392;-81
2022/09/20 06:48:55;;;;;;;24.73;6.18;;;;;;;;;;4989134;28;20085;-81
2022/09/20 06:51:23;;;;;;;17.65;6.68;;;;;;;;;;4974773;28;20061;-82
2022/09/20 06:53:49;;;;;;;24.65;6.93;;;;;;;;;;4971524;28;20615;-83
2022/09/20 06:56:18;;;;;;;23.67;7.13;;;;;;;;;;4971194;28;20054;-82
2022/09/20 06:58:45;;;;;;;23.38;7.35;;;;;;;;;;4970598;28;20066;-81
2022/09/20 07:01:12;;;;;;;23.55;6.95;;;;;;;;;;4971117;28;20046;-80
2022/09/20 07:03:39;;;;;;;23.27;7.00;;;;;;;;;;4971598;28;20081;-81
2022/09/20 07:06:06;;;;;;;18.63;5.72;;;;;;;;;;4971089;28;20061;-80
2022/09/20 07:08:32;;;;;;;23.70;6.38;;;;;;;;;;4971549;28;20618;-82
2022/09/20 07:11:03;;;;;;;22.50;6.28;;;;;;;;;;4971106;28;20057;-81
2022/09/20 07:13:29;;;;;;;18.75;5.85;;;;;;;;;;4953945;28;20106;-81
2022/09/20 07:16:00;;;;;;;12.98;5.85;;;;;;;;;;4970820;28;20288;-82
2022/09/20 07:18:27;;;;;;;22.13;6.05;;;;;;;;;;4952820;28;20391;-83
2022/09/20 07:20:54;;;;;;;19.20;5.40;;;;;;;;;;4954548;28;20471;-81
2022/09/20 07:23:20;;;;;;;18.65;5.60;;;;;;;;;;4954398;28;20050;-83
2022/09/20 07:25:47;;;;;;;9.25;4.72;;;;;;;;;;4953576;28;20095;-81
2022/09/20 07:28:13;;;;;;;19.50;4.55;;;;;;;;;;4953678;28;20049;-84
2022/09/20 07:30:41;;;;;;;11.63;4.60;;;;;;;;;;4971525;28;20054;-81
2022/09/20 07:33:09;;;;;;;8.25;4.82;;;;;;;;;;4953679;28;20047;-81
2022/09/20 07:35:36;;;;;;;13.57;5.25;;;;;;;;;;4974303;28;20059;-80
2022/09/20 07:38:02;;;;;;;16.08;4.63;;;;;;;;;;4974840;28;20660;-81
2022/09/20 07:40:29;;;;;;;15.02;5.05;;;;;;;;;;4975078;28;20055;-83
2022/09/20 07:42:58;;;;;;;22.08;6.93;;;;;;;;;;4959781;28;20105;-81
2022/09/20 07:45:25;;;;;;;28.52;11.25;;;;;;;;;;4977195;28;20058;-81
2022/09/20 07:47:52;;;;;;;12.23;5.20;;;;;;;;;;4957143;28;20054;-81
2022/09/20 07:50:19;;;;;;;14.63;4.85;;;;;;;;;;4964699;28;20053;-82
2022/09/20 07:52:45;;;;;;;16.13;5.82;;;;;;;;;;4994800;28;20058;-82
2022/09/20 07:55:11;;;;;;;27.00;6.32;;;;;;;;;;4995275;28;20049;-83
2022/09/20 07:57:38;;;;;;;16.73;5.68;;;;;;;;;;4994869;28;20050;-82
2022/09/20 08:00:05;;;;;;;16.00;6.03;;;;;;;;;;4993858;28;20050;-83
2022/09/20 08:02:32;;;;;;;22.05;5.88;;;;;;;;;;4977259;28;20054;-82
2022/09/20 08:04:58;;;;;;;15.75;5.63;;;;;;;;;;4995195;28;20062;-82
2022/09/20 08:07:25;;;;;;;16.55;5.95;;;;;;;;;;4995622;28;20054;-81
2022/09/20 08:09:51;;;;;;;22.25;6.65;;;;;;;;;;4994740;28;20046;-81
2022/09/20 08:12:18;;;;;;;16.50;5.50;;;;;;;;;;4995223;28;20053;-81
2022/09/20 08:15:05;;;;;;;15.98;5.78;;;;;;;;;;4994814;28;20532;-82
2022/09/20 08:17:37;;;;;;;18.20;5.47;;;;;;;;;;5012644;28;20074;-81
2022/09/20 08:20:03;;;;;;;15.95;5.80;;;;;;;;;;5014805;28;20036;-81
2022/09/20 08:22:30;;;;;;;16.90;5.60;;;;;;;;;;5005551;28;20054;-79
2022/09/20 08:24:57;;;;;;;22.70;5.55;;;;;;;;;;5007097;28;20042;-81
2022/09/20 08:27:23;;;;;;;19.63;5.63;;;;;;;;;;4999472;28;20061;-82
2022/09/20 08:29:51;;;;;;;15.13;5.25;;;;;;;;;;4992727;28;20051;-80
2022/09/20 08:32:17;;;;;;;14.43;5.38;;;;;;;;;;4995359;28;20050;-78
2022/09/20 08:34:43;;;;;;;17.83;5.68;;;;;;;;;;4994231;28;20054;-80
2022/09/20 08:37:15;;;;;;;14.15;5.30;;;;;;;;;;4995135;28;20506;-82
2022/09/20 08:39:41;;;;;;;21.40;6.45;;;;;;;;;;4994035;28;20055;-82
2022/09/20 08:42:28;;;;;;;17.65;6.55;;;;;;;;;;4994907;28;20053;-82
2022/09/20 08:45:01;;;;;;;22.13;6.85;;;;;;;;;;4994320;28;20586;-83
2022/09/20 08:47:29;;;;;;;18.23;6.70;;;;;;;;;;4975502;28;20388;-82
2022/09/20 08:49:56;;;;;;;14.55;6.10;;;;;;;;;;4987599;28;20046;-81
2022/09/20 08:52:29;;;;;;;16.50;6.75;;;;;;;;;;4957520;28;20138;-80
2022/09/20 08:55:02;;;;;;;19.83;7.20;;;;;;;;;;4974649;28;20046;-82
2022/09/20 08:57:34;;;;;;;22.33;7.28;;;;;;;;;;4974615;28;20296;-83
2022/09/20 09:00:01;;;;;;;19.90;8.55;;;;;;;;;;4973873;28;20051;-84
2022/09/20 09:02:29;;;;;;;21.08;8.73;;;;;;;;;;4974795;28;20062;-81
2022/09/20 09:04:56;;;;;;;22.35;9.23;;;;;;;;;;4974397;28;20058;-81
2022/09/20 09:07:23;;;;;;;21.38;8.40;;;;;;;;;;4956295;28;20471;-81
2022/09/20 09:09:51;;;;;;;26.08;9.43;;;;;;;;;;4973775;28;20058;-81
2022/09/20 09:12:17;;;;;;;31.67;9.65;;;;;;;;;;4974091;28;20129;-81
2022/09/20 09:14:53;;;;;;;28.15;10.45;;;;;;;;;;4972940;28;20051;-80
2022/09/20 09:17:21;;;;;;;32.40;11.48;;;;;;;;;;4973572;28;20057;-80
2022/09/20 09:19:54;;;;;;;26.00;10.57;;;;;;;;;;4972404;28;20104;-83
2022/09/20 09:22:38;;;;;;;29.00;9.77;;;;;;;;;;4973347;28;20051;-82
2022/09/20 09:25:06;;;;;;;30.40;10.25;;;;;;;;;;4973036;28;20065;-81
2022/09/20 09:27:33;;;;;;;27.33;9.82;;;;;;;;;;4972610;28;20043;-80
2022/09/20 09:30:00;;;;;;;29.35;10.43;;;;;;;;;;4972269;28;20061;-83
2022/09/20 09:32:28;;;;;;;24.67;9.40;;;;;;;;;;4973784;28;20537;-79
2022/09/20 09:34:55;;;;;;;25.13;9.82;;;;;;;;;;4990753;28;20077;-81
2022/09/20 09:37:23;;;;;;;24.05;9.15;;;;;;;;;;4992854;28;20054;-79
2022/09/20 09:40:15;;;;;;;23.40;9.40;;;;;;;;;;4990886;28;20056;-81
2022/09/20 09:43:08;;;;;;;31.05;8.98;;;;;;;;;;4992392;28;20046;-81
2022/09/20 09:45:37;;;;;;;23.00;9.15;;;;;;;;;;4990147;28;20534;-82
2022/09/20 09:48:17;;;;;;;28.77;9.77;;;;;;;;;;4991445;28;20049;-80
2022/09/20 09:50:44;;;;;;;31.15;11.02;;;;;;;;;;4964334;28;20051;-81
2022/09/20 09:53:14;;;;;;;20.17;9.02;;;;;;;;;;4972714;28;20050;-79
2022/09/20 09:55:40;;;;;;;25.67;9.30;;;;;;;;;;4955938;28;20073;-81
2022/09/20 09:58:15;;;;;;;22.75;8.25;;;;;;;;;;4971956;28;20054;-77
2022/09/20 10:00:45;;;;;;;24.67;7.70;;;;;;;;;;4971871;28;20047;-81
2022/09/20 10:03:12;;;;;;;23.85;7.78;;;;;;;;;;4971978;28;20444;-81
2022/09/20 10:05:44;;;;;;;19.98;7.63;;;;;;;;;;4973836;28;20133;-79
2022/09/20 10:08:20;;;;;;;19.48;6.78;;;;;;;;;;4973010;28;20407;-81
2022/09/20 10:10:58;;;;;;;18.77;6.55;;;;;;;;;;4973339;28;20054;-79
2022/09/20 10:13:34;;;;;;;21.73;6.32;;;;;;;;;;4955928;28;20050;-82
2022/09/20 10:16:21;;;;;;;15.50;5.70;;;;;;;;;;4973323;28;20062;-81
2022/09/20 10:18:48;;;;;;;14.48;5.40;;;;;;;;;;4954893;28;20057;-81
2022/09/20 10:21:24;;;;;;;16.60;5.40;;;;;;;;;;4956647;28;20046;-81
2022/09/20 10:24:05;;;;;;;11.57;3.58;;;;;;;;;;4978764;28;20062;-79
2022/09/20 10:26:50;;;;;;;9.65;4.03;;;;;;;;;;4976035;28;20057;-82
2022/09/20 10:29:23;;;;;;;7.00;3.15;;;;;;;;;;4973730;28;20060;-81
2022/09/20 10:31:56;;;;;;;15.18;3.15;;;;;;;;;;4975149;28;20066;-83
2022/09/20 10:34:38;;;;;;;7.15;2.50;;;;;;;;;;4973926;28;20061;-83
2022/09/20 10:37:10;;;;;;;10.25;3.10;;;;;;;;;;4974735;28;20054;-81
2022/09/20 10:39:37;;;;;;;11.45;2.95;;;;;;;;;;4973628;28;20069;-83
2022/09/20 10:45:13;;;;;;;6.20;2.42;;;;;;;;;;4975216;28;20050;-81
2022/09/20 10:48:06;;;;;;;6.50;2.83;;;;;;;;;;4974349;28;20050;-81
2022/09/20 10:50:35;;;;;;;8.80;2.40;;;;;;;;;;4996156;28;20285;-79
2022/09/20 10:53:08;;;;;;;6.88;2.00;;;;;;;;;;5007564;28;20057;-80
2022/09/20 10:55:46;;;;;;;7.35;2.03;;;;;;;;;;4996060;28;20054;-81
2022/09/20 10:58:19;;;;;;;10.00;2.72;;;;;;;;;;4992179;28;20043;-80
2022/09/20 11:00:56;;;;;;;8.52;2.47;;;;;;;;;;4991805;28;20058;-81
2022/09/20 11:03:42;;;;;;;6.90;2.45;;;;;;;;;;4992467;28;20050;-79
2022/09/20 11:06:14;;;;;;;8.35;3.00;;;;;;;;;;4993612;28;20054;-83
2022/09/20 11:08:41;;;;;;;6.57;2.05;;;;;;;;;;4992745;28;20403;-82
2022/09/20 11:11:30;;;;;;;5.88;2.20;;;;;;;;;;4996528;28;20046;-79
2022/09/20 11:14:02;;;;;;;6.03;2.53;;;;;;;;;;4988547;28;20129;-79
2022/09/20 11:16:35;;;;;;;6.43;2.20;;;;;;;;;;4996601;28;20057;-82
2022/09/20 11:19:25;;;;;;;6.57;2.30;;;;;;;;;;4995692;28;20050;-83
2022/09/20 11:21:54;;;;;;;7.07;2.38;;;;;;;;;;4996926;28;20054;-79
2022/09/20 11:24:31;;;;;;;8.68;2.90;;;;;;;;;;4995993;28;20062;-81
2022/09/20 11:26:59;;;;;;;6.35;2.38;;;;;;;;;;4996575;28;20047;-79
2022/09/20 11:29:26;;;;;;;4.38;1.55;;;;;;;;;;4994931;28;20510;-79
2022/09/20 11:31:54;;;;;;;3.00;1.00;;;;;;;;;;4996439;28;20525;-83
2022/09/20 11:34:24;;;;;;;5.75;1.58;;;;;;;;;;4996345;28;20050;-81
2022/09/20 11:36:51;;;;;;;3.00;0.70;;;;;;;;;;4996585;28;20056;-80
2022/09/20 11:39:21;;;;;;;2.17;0.70;;;;;;;;;;5006861;28;20059;-80
2022/09/20 11:41:50;;;;;;;1.27;0.68;;;;;;;;;;5016363;28;20045;-80
2022/09/20 11:44:18;;;;;;;1.10;0.60;;;;;;;;;;5011149;28;20053;-80
2022/09/20 11:46:47;;;;;;;3.05;0.65;;;;;;;;;;4994849;28;20042;-80
2022/09/20 11:49:34;;;;;;;4.43;0.95;;;;;;;;;;4994200;28;20054;-81
2022/09/20 11:52:07;;;;;;;3.70;1.02;;;;;;;;;;4972303;28;20149;-81
2022/09/20 11:54:41;;;;;;;2.25;0.90;;;;;;;;;;4958752;28;20158;-80
2022/09/20 11:57:12;;;;;;;3.88;0.80;;;;;;;;;;4977698;28;20058;-78
2022/09/20 11:59:39;;;;;;;2.22;0.90;;;;;;;;;;4975967;28;20061;-81
2022/09/20 12:02:18;;;;;;;2.58;0.90;;;;;;;;;;4974389;28;20076;-80
2022/09/20 12:04:48;;;;;;;3.28;1.10;;;;;;;;;;4956968;28;20054;-80
2022/09/20 12:07:16;;;;;;;2.70;1.08;;;;;;;;;;4973852;28;20058;-78
2022/09/20 12:09:53;;;;;;;2.08;1.00;;;;;;;;;;4973605;28;20144;-83
2022/09/20 12:12:20;;;;;;;;;;;;;;;;;;4974833;28;20431;-79
2022/09/20 12:14:57;;;;;;;3.70;1.30;;;;;;;;;;4973587;28;20353;-80
2022/09/20 12:17:45;;;;;;;3.58;1.27;;;;;;;;;;4974283;28;20043;-78
2022/09/20 12:20:30;;;;;;;2.03;0.95;;;;;;;;;;4972506;28;20073;-80
2022/09/20 12:23:15;;;;;;;3.00;1.25;;;;;;;;;;4974570;28;20415;-82
2022/09/20 12:25:59;;;;;;;2.63;1.08;;;;;;;;;;4958708;28;20047;-79
2022/09/20 12:28:42;;;;;;;5.85;1.60;;;;;;;;;;4975888;28;20051;-81
2022/09/20 12:31:21;;;;;;;8.90;2.22;;;;;;;;;;4976056;28;20507;-81
2022/09/20 12:34:03;;;;;;;5.35;2.00;;;;;;;;;;4959737;28;20139;-80
2022/09/20 12:36:33;;;;;;;6.03;1.77;;;;;;;;;;4973909;28;20087;-80
2022/09/20 12:39:14;;;;;;;6.05;1.63;;;;;;;;;;4973186;28;20046;-81
2022/09/20 12:41:59;;;;;;;6.70;1.90;;;;;;;;;;4958416;28;20054;-81
2022/09/20 12:44:44;;;;;;;7.10;2.40;;;;;;;;;;4974161;28;20050;-79
2022/09/20 12:47:10;;;;;;;5.50;2.00;;;;;;;;;;4973807;28;20043;-82
2022/09/20 12:55:23;;;;;;;4.30;1.50;;;;;;;;;;4998945;28;20049;-81
2022/09/20 12:57:54;;;;;;;4.05;1.45;;;;;;;;;;4998481;28;20071;-81
2022/09/20 13:00:29;;;;;;;3.83;1.30;;;;;;;;;;4995395;28;20050;-81
2022/09/20 13:02:59;;;;;;;3.50;1.42;;;;;;;;;;4998313;28;20050;-81
2022/09/20 13:05:31;;;;;;;2.97;1.02;;;;;;;;;;4999763;28;20057;-82
2022/09/20 13:08:01;;;;;;;2.63;1.25;;;;;;;;;;5001983;28;20414;-80
2022/09/20 13:10:29;;;;;;;3.53;1.48;;;;;;;;;;4998837;28;20521;-82
2022/09/20 13:13:02;;;;;;;3.95;1.60;;;;;;;;;;5000429;28;20046;-81
2022/09/20 13:15:28;;;;;;;4.05;1.52;;;;;;;;;;5001674;28;20048;-81
2022/09/20 13:17:58;;;;;;;4.50;1.60;;;;;;;;;;4998505;28;20055;-80
2022/09/20 13:20:29;;;;;;;3.08;1.40;;;;;;;;;;4998091;28;20065;-81
2022/09/20 13:22:57;;;;;;;4.30;1.35;;;;;;;;;;4999806;28;20050;-82
2022/09/20 13:25:27;;;;;;;3.55;1.35;;;;;;;;;;5000123;28;20054;-81
2022/09/20 13:28:09;;;;;;;3.78;1.38;;;;;;;;;;4983003;28;20407;-82
2022/09/20 13:30:35;;;;;;;4.75;1.48;;;;;;;;;;5000274;28;20072;-81
2022/09/20 13:33:22;;;;;;;3.35;1.23;;;;;;;;;;4986291;28;20052;-81
2022/09/20 13:35:49;;;;;;;;;;;;;;;;;;5004918;28;20117;-81
2022/09/20 13:38:23;;;;;;;2.28;1.02;;;;;;;;;;5002935;28;19928;-80
2022/09/20 13:40:50;;;;;;;2.35;1.00;;;;;;;;;;5001499;28;20068;-79
2022/09/20 13:43:16;;;;;;;4.75;1.10;;;;;;;;;;5002634;28;20053;-80
2022/09/20 13:45:56;;;;;;;3.22;1.10;;;;;;;;;;4999577;28;20133;-80
2022/09/20 13:48:26;;;;;;;3.85;1.15;;;;;;;;;;4999039;28;20053;-81
2022/09/20 13:50:53;;;;;;;4.18;1.23;;;;;;;;;;5001093;28;20049;-80
2022/09/20 13:53:24;;;;;;;4.25;1.30;;;;;;;;;;5003940;28;20065;-79
2022/09/20 13:56:16;;;;;;;2.13;1.10;;;;;;;;;;5003213;28;20046;-80
2022/09/20 13:58:42;;;;;;;7.70;1.35;;;;;;;;;;5006849;28;20478;-80
2022/09/20 14:01:20;;;;;;;4.65;1.60;;;;;;;;;;4994139;28;20423;-81
2022/09/20 14:03:47;;;;;;;4.40;1.38;;;;;;;;;;4997454;28;20693;-83
2022/09/20 14:06:14;;;;;;;6.38;1.58;;;;;;;;;;4979967;28;20046;-79
2022/09/20 14:08:42;;;;;;;2.78;1.45;;;;;;;;;;4999384;28;20053;-80
2022/09/20 14:11:19;;;;;;;3.92;1.70;;;;;;;;;;4988179;28;20046;-82
2022/09/20 14:13:48;;;;;;;3.97;1.77;;;;;;;;;;5000695;28;20042;-81
2022/09/20 14:16:19;;;;;;;3.58;1.30;;;;;;;;;;5000907;28;20049;-81
2022/09/20 14:18:46;;;;;;;2.83;1.45;;;;;;;;;;4996592;28;20071;-80
2022/09/20 14:21:16;;;;;;;4.80;1.70;;;;;;;;;;5002262;28;20133;-81
2022/09/20 14:23:53;;;;;;;2.67;1.38;;;;;;;;;;4999100;28;20049;-80
2022/09/20 14:26:21;;;;;;;3.88;1.60;;;;;;;;;;5004183;28;20049;-82
2022/09/20 14:28:48;;;;;;;2.75;1.42;;;;;;;;;;4999699;28;20582;-80
2022/09/20 14:31:20;;;;;;;4.55;1.40;;;;;;;;;;5005289;28;20097;-81
2022/09/20 14:33:50;;;;;;;3.47;1.52;;;;;;;;;;4996928;28;20498;-81
2022/09/20 14:36:23;;;;;;;5.38;1.50;;;;;;;;;;5001285;28;20041;-81
2022/09/20 14:38:52;;;;;;;5.28;1.70;;;;;;;;;;4982190;28;20052;-82
2022/09/20 14:41:27;;;;;;;2.28;1.40;;;;;;;;;;5001344;28;20058;-80
2022/09/20 14:43:55;;;;;;;3.80;1.80;;;;;;;;;;4994222;28;20057;-80
2022/09/20 14:46:27;;;;;;;3.00;1.50;;;;;;;;;;4997229;28;20054;-80
2022/09/20 14:48:54;;;;;;;4.95;1.75;;;;;;;;;;4987689;28;20091;-81
2022/09/20 14:51:21;;;;;;;6.03;1.88;;;;;;;;;;5004548;28;20048;-81
2022/09/20 14:53:50;;;;;;;7.90;1.60;;;;;;;;;;5003705;28;20038;-81
2022/09/20 14:56:31;;;;;;;5.60;1.90;;;;;;;;;;5010925;28;20077;-79
2022/09/20 14:59:10;;;;;;;3.42;1.70;;;;;;;;;;5009162;28;20045;-79
2022/09/20 15:01:40;;;;;;;3.70;1.80;;;;;;;;;;5015548;28;20046;-78
2022/09/20 15:04:19;;;;;;;6.30;1.65;;;;;;;;;;5000378;28;20051;-81
2022/09/20 15:06:46;;;;;;;3.80;1.88;;;;;;;;;;5003299;28;20052;-80
2022/09/20 15:09:13;;;;;;;4.22;1.60;;;;;;;;;;5003023;28;20046;-82
2022/09/20 15:11:39;;;;;;;4.70;1.63;;;;;;;;;;4980471;28;20049;-81
2022/09/20 15:14:07;;;;;;;5.10;1.80;;;;;;;;;;5003633;28;20160;-82
2022/09/20 15:16:33;;;;;;;2.67;1.67;;;;;;;;;;5005466;28;20050;-83
2022/09/20 15:19:00;;;;;;;5.88;1.70;;;;;;;;;;4997982;28;20076;-79
2022/09/20 15:21:26;;;;;;;2.25;1.42;;;;;;;;;;5001222;28;20066;-81
2022/09/20 15:23:52;;;;;;;4.40;2.03;;;;;;;;;;5009883;28;20061;-80
2022/09/20 15:26:20;;;;;;;5.28;1.90;;;;;;;;;;5012402;28;20080;-80